sensor_id;sensor_type;location;lat;lon;timestamp;P1;durP1;ratioP1;P2;durP2;ratioP2
4597;SDS011;62772;48.646;8.906;2023-07-20T00:02:26;4.67;;;3.00;;
4597;SDS011;62772;48.646;8.906;2023-07-20T00:07:26;4.63;;;2.83;;
4597;SDS011;62772;48.646;8.906;2023-07-20T00:12:27;4.30;;;3.00;;
4597;SDS011;62772;48.646;8.906;2023-07-20T00:17:27;5.03;;;3.13;;
4597;SDS011;62772;48.646;8.906;2023-07-20T00:22:27;5.33;;;3.10;;
4597;SDS011;62772;48.646;8.906;2023-07-20T00:27:28;13.63;;;2.83;;
4597;SDS011;62772;48.646;8.906;2023-07-20T00:32:28;6.53;;;2.90;;
4597;SDS011;62772;48.646;8.906;2023-07-20T00:37:31;8.80;;;3.40;;
4597;SDS011;62772;48.646;8.906;2023-07-20T00:42:33;4.53;;;3.07;;
4597;SDS011;62772;48.646;8.906;2023-07-20T00:47:36;5.57;;;3.10;;
4597;SDS011;62772;48.646;8.906;2023-07-20T00:52:37;6.70;;;3.43;;
4597;SDS011;62772;48.646;8.906;2023-07-20T00:57:39;7.93;;;3.10;;
4597;SDS011;62772;48.646;8.906;2023-07-20T01:02:40;6.53;;;3.37;;
4597;SDS011;62772;48.646;8.906;2023-07-20T01:12:55;5.90;;;3.60;;
4597;SDS011;62772;48.646;8.906;2023-07-20T01:17:57;5.50;;;3.30;;
4597;SDS011;62772;48.646;8.906;2023-07-20T01:33:46;5.90;;;3.33;;
4597;SDS011;62772;48.646;8.906;2023-07-20T01:38:48;5.93;;;3.60;;
4597;SDS011;62772;48.646;8.906;2023-07-20T01:43:49;5.67;;;3.40;;
4597;SDS011;62772;48.646;8.906;2023-07-20T01:48:50;4.97;;;3.27;;
4597;SDS011;62772;48.646;8.906;2023-07-20T01:53:51;4.60;;;3.00;;
4597;SDS011;62772;48.646;8.906;2023-07-20T01:58:51;6.10;;;3.37;;
4597;SDS011;62772;48.646;8.906;2023-07-20T02:03:52;5.73;;;3.30;;
4597;SDS011;62772;48.646;8.906;2023-07-20T02:08:53;5.00;;;3.20;;
4597;SDS011;62772;48.646;8.906;2023-07-20T02:13:53;5.17;;;3.27;;
4597;SDS011;62772;48.646;8.906;2023-07-20T02:18:56;5.07;;;3.40;;
4597;SDS011;62772;48.646;8.906;2023-07-20T02:23:58;5.17;;;3.03;;
4597;SDS011;62772;48.646;8.906;2023-07-20T02:28:58;4.67;;;3.20;;
4597;SDS011;62772;48.646;8.906;2023-07-20T02:33:59;9.00;;;3.40;;
4597;SDS011;62772;48.646;8.906;2023-07-20T02:38:59;5.20;;;3.10;;
4597;SDS011;62772;48.646;8.906;2023-07-20T02:44:01;10.40;;;2.97;;
4597;SDS011;62772;48.646;8.906;2023-07-20T02:49:03;5.70;;;3.33;;
4597;SDS011;62772;48.646;8.906;2023-07-20T02:54:04;7.30;;;3.57;;
4597;SDS011;62772;48.646;8.906;2023-07-20T02:59:04;7.60;;;3.33;;
4597;SDS011;62772;48.646;8.906;2023-07-20T03:04:05;4.73;;;3.03;;
4597;SDS011;62772;48.646;8.906;2023-07-20T03:09:05;6.53;;;3.30;;
4597;SDS011;62772;48.646;8.906;2023-07-20T03:14:06;4.50;;;3.00;;
4597;SDS011;62772;48.646;8.906;2023-07-20T03:19:07;6.40;;;3.20;;
4597;SDS011;62772;48.646;8.906;2023-07-20T03:24:09;11.20;;;3.47;;
4597;SDS011;62772;48.646;8.906;2023-07-20T03:29:10;4.83;;;2.87;;
4597;SDS011;62772;48.646;8.906;2023-07-20T03:34:10;5.23;;;3.07;;
4597;SDS011;62772;48.646;8.906;2023-07-20T03:39:11;15.50;;;3.53;;
4597;SDS011;62772;48.646;8.906;2023-07-20T03:44:11;6.33;;;2.97;;
4597;SDS011;62772;48.646;8.906;2023-07-20T03:49:12;5.30;;;3.50;;
4597;SDS011;62772;48.646;8.906;2023-07-20T03:54:12;5.93;;;3.50;;
4597;SDS011;62772;48.646;8.906;2023-07-20T03:59:12;5.40;;;3.50;;
4597;SDS011;62772;48.646;8.906;2023-07-20T04:04:15;6.20;;;4.07;;
4597;SDS011;62772;48.646;8.906;2023-07-20T04:09:16;5.83;;;3.20;;
4597;SDS011;62772;48.646;8.906;2023-07-20T04:14:16;7.23;;;3.70;;
4597;SDS011;62772;48.646;8.906;2023-07-20T04:19:17;5.53;;;3.67;;
4597;SDS011;62772;48.646;8.906;2023-07-20T04:24:18;6.00;;;3.63;;
4597;SDS011;62772;48.646;8.906;2023-07-20T04:29:18;7.33;;;3.50;;
4597;SDS011;62772;48.646;8.906;2023-07-20T04:34:19;7.70;;;4.27;;
4597;SDS011;62772;48.646;8.906;2023-07-20T04:39:22;5.70;;;3.37;;
4597;SDS011;62772;48.646;8.906;2023-07-20T04:44:23;5.43;;;3.23;;
4597;SDS011;62772;48.646;8.906;2023-07-20T04:49:24;5.13;;;3.43;;
4597;SDS011;62772;48.646;8.906;2023-07-20T04:54:25;11.20;;;3.80;;
4597;SDS011;62772;48.646;8.906;2023-07-20T04:59:27;5.67;;;3.77;;
4597;SDS011;62772;48.646;8.906;2023-07-20T05:04:28;4.43;;;3.10;;
4597;SDS011;62772;48.646;8.906;2023-07-20T05:09:28;5.53;;;3.57;;
4597;SDS011;62772;48.646;8.906;2023-07-20T05:14:29;6.33;;;3.53;;
4597;SDS011;62772;48.646;8.906;2023-07-20T05:19:30;5.67;;;3.77;;
4597;SDS011;62772;48.646;8.906;2023-07-20T05:24:31;6.73;;;3.60;;
4597;SDS011;62772;48.646;8.906;2023-07-20T05:29:31;6.43;;;3.50;;
4597;SDS011;62772;48.646;8.906;2023-07-20T05:34:33;6.37;;;3.73;;
4597;SDS011;62772;48.646;8.906;2023-07-20T05:39:33;8.90;;;4.27;;
4597;SDS011;62772;48.646;8.906;2023-07-20T05:44:34;5.97;;;3.50;;
4597;SDS011;62772;48.646;8.906;2023-07-20T05:49:35;4.53;;;3.03;;
4597;SDS011;62772;48.646;8.906;2023-07-20T05:54:36;5.47;;;3.50;;
4597;SDS011;62772;48.646;8.906;2023-07-20T05:59:36;5.50;;;3.30;;
4597;SDS011;62772;48.646;8.906;2023-07-20T06:04:38;8.07;;;3.60;;
4597;SDS011;62772;48.646;8.906;2023-07-20T06:09:39;6.40;;;3.30;;
4597;SDS011;62772;48.646;8.906;2023-07-20T06:14:40;6.83;;;3.63;;
4597;SDS011;62772;48.646;8.906;2023-07-20T06:19:40;5.67;;;3.37;;
4597;SDS011;62772;48.646;8.906;2023-07-20T06:24:41;6.20;;;3.60;;
4597;SDS011;62772;48.646;8.906;2023-07-20T06:29:41;6.27;;;3.30;;
4597;SDS011;62772;48.646;8.906;2023-07-20T06:34:42;6.70;;;3.80;;
4597;SDS011;62772;48.646;8.906;2023-07-20T06:39:42;9.40;;;3.50;;
4597;SDS011;62772;48.646;8.906;2023-07-20T06:44:43;4.87;;;3.10;;
4597;SDS011;62772;48.646;8.906;2023-07-20T06:49:43;4.30;;;2.80;;
4597;SDS011;62772;48.646;8.906;2023-07-20T06:54:44;5.47;;;2.87;;
4597;SDS011;62772;48.646;8.906;2023-07-20T06:59:44;6.07;;;3.30;;
4597;SDS011;62772;48.646;8.906;2023-07-20T07:04:45;5.43;;;3.30;;
4597;SDS011;62772;48.646;8.906;2023-07-20T07:09:47;5.23;;;2.73;;
4597;SDS011;62772;48.646;8.906;2023-07-20T07:14:47;7.50;;;3.27;;
4597;SDS011;62772;48.646;8.906;2023-07-20T07:19:48;5.97;;;3.30;;
4597;SDS011;62772;48.646;8.906;2023-07-20T07:24:48;5.90;;;3.10;;
4597;SDS011;62772;48.646;8.906;2023-07-20T07:29:49;18.60;;;3.43;;
4597;SDS011;62772;48.646;8.906;2023-07-20T07:34:49;5.30;;;3.50;;
4597;SDS011;62772;48.646;8.906;2023-07-20T07:39:50;17.70;;;4.00;;
4597;SDS011;62772;48.646;8.906;2023-07-20T07:44:50;6.23;;;3.77;;
4597;SDS011;62772;48.646;8.906;2023-07-20T07:49:51;5.90;;;3.60;;
4597;SDS011;62772;48.646;8.906;2023-07-20T07:54:51;5.63;;;3.40;;
4597;SDS011;62772;48.646;8.906;2023-07-20T07:59:51;8.63;;;3.63;;
4597;SDS011;62772;48.646;8.906;2023-07-20T08:04:52;6.60;;;3.70;;
4597;SDS011;62772;48.646;8.906;2023-07-20T08:09:52;4.70;;;3.07;;
4597;SDS011;62772;48.646;8.906;2023-07-20T08:14:53;7.10;;;2.73;;
4597;SDS011;62772;48.646;8.906;2023-07-20T08:19:53;5.67;;;3.20;;
4597;SDS011;62772;48.646;8.906;2023-07-20T08:24:54;5.10;;;3.40;;
4597;SDS011;62772;48.646;8.906;2023-07-20T08:29:55;9.20;;;3.17;;
4597;SDS011;62772;48.646;8.906;2023-07-20T08:34:55;5.33;;;3.17;;
4597;SDS011;62772;48.646;8.906;2023-07-20T08:39:55;5.80;;;2.87;;
4597;SDS011;62772;48.646;8.906;2023-07-20T08:44:56;4.23;;;2.83;;
4597;SDS011;62772;48.646;8.906;2023-07-20T08:49:57;7.80;;;3.30;;
4597;SDS011;62772;48.646;8.906;2023-07-20T08:54:59;4.53;;;2.67;;
4597;SDS011;62772;48.646;8.906;2023-07-20T09:00:03;6.80;;;2.60;;
4597;SDS011;62772;48.646;8.906;2023-07-20T09:05:11;3.63;;;2.27;;
4597;SDS011;62772;48.646;8.906;2023-07-20T09:10:14;3.70;;;2.33;;
4597;SDS011;62772;48.646;8.906;2023-07-20T09:15:15;4.13;;;2.50;;
4597;SDS011;62772;48.646;8.906;2023-07-20T09:20:17;6.10;;;2.87;;
4597;SDS011;62772;48.646;8.906;2023-07-20T09:25:18;6.23;;;2.87;;
4597;SDS011;62772;48.646;8.906;2023-07-20T09:30:25;5.07;;;2.37;;
4597;SDS011;62772;48.646;8.906;2023-07-20T09:35:25;6.20;;;2.30;;
4597;SDS011;62772;48.646;8.906;2023-07-20T09:40:26;3.70;;;2.03;;
4597;SDS011;62772;48.646;8.906;2023-07-20T09:45:28;3.77;;;1.93;;
4597;SDS011;62772;48.646;8.906;2023-07-20T09:50:30;2.93;;;1.80;;
4597;SDS011;62772;48.646;8.906;2023-07-20T09:55:31;4.13;;;2.30;;
4597;SDS011;62772;48.646;8.906;2023-07-20T10:00:34;3.33;;;2.10;;
4597;SDS011;62772;48.646;8.906;2023-07-20T10:05:39;5.90;;;2.43;;
4597;SDS011;62772;48.646;8.906;2023-07-20T10:10:44;5.63;;;1.97;;
4597;SDS011;62772;48.646;8.906;2023-07-20T10:15:46;5.20;;;2.30;;
4597;SDS011;62772;48.646;8.906;2023-07-20T10:20:51;3.50;;;2.00;;
4597;SDS011;62772;48.646;8.906;2023-07-20T10:25:55;3.63;;;2.10;;
4597;SDS011;62772;48.646;8.906;2023-07-20T10:30:56;3.70;;;2.07;;
4597;SDS011;62772;48.646;8.906;2023-07-20T10:35:58;4.70;;;2.10;;
4597;SDS011;62772;48.646;8.906;2023-07-20T10:41:02;3.47;;;1.70;;
4597;SDS011;62772;48.646;8.906;2023-07-20T10:46:02;4.47;;;1.90;;
4597;SDS011;62772;48.646;8.906;2023-07-20T10:51:10;4.70;;;1.80;;
4597;SDS011;62772;48.646;8.906;2023-07-20T10:56:20;2.90;;;1.93;;
4597;SDS011;62772;48.646;8.906;2023-07-20T11:01:27;4.67;;;1.90;;
4597;SDS011;62772;48.646;8.906;2023-07-20T11:06:33;3.60;;;1.70;;
4597;SDS011;62772;48.646;8.906;2023-07-20T11:11:35;3.77;;;1.70;;
4597;SDS011;62772;48.646;8.906;2023-07-20T11:21:39;4.37;;;2.00;;
4597;SDS011;62772;48.646;8.906;2023-07-20T11:26:44;3.00;;;1.80;;
4597;SDS011;62772;48.646;8.906;2023-07-20T11:31:48;4.17;;;2.07;;
4597;SDS011;62772;48.646;8.906;2023-07-20T11:36:49;2.63;;;1.80;;
4597;SDS011;62772;48.646;8.906;2023-07-20T11:41:52;3.20;;;1.90;;
4597;SDS011;62772;48.646;8.906;2023-07-20T11:52:11;3.40;;;1.80;;
4597;SDS011;62772;48.646;8.906;2023-07-20T11:57:16;4.43;;;1.97;;
4597;SDS011;62772;48.646;8.906;2023-07-20T12:02:17;3.70;;;2.20;;
4597;SDS011;62772;48.646;8.906;2023-07-20T12:07:20;4.70;;;2.30;;
4597;SDS011;62772;48.646;8.906;2023-07-20T12:12:21;6.30;;;1.83;;
4597;SDS011;62772;48.646;8.906;2023-07-20T12:17:22;6.43;;;2.50;;
4597;SDS011;62772;48.646;8.906;2023-07-20T12:22:22;3.33;;;1.80;;
4597;SDS011;62772;48.646;8.906;2023-07-20T12:27:26;2.87;;;1.80;;
4597;SDS011;62772;48.646;8.906;2023-07-20T12:32:28;5.63;;;1.87;;
4597;SDS011;62772;48.646;8.906;2023-07-20T12:37:29;4.00;;;2.10;;
4597;SDS011;62772;48.646;8.906;2023-07-20T12:42:29;2.73;;;1.60;;
4597;SDS011;62772;48.646;8.906;2023-07-20T12:47:30;3.90;;;1.57;;
4597;SDS011;62772;48.646;8.906;2023-07-20T12:52:30;5.10;;;1.80;;
4597;SDS011;62772;48.646;8.906;2023-07-20T12:57:31;3.57;;;1.83;;
4597;SDS011;62772;48.646;8.906;2023-07-20T13:02:32;2.67;;;1.93;;
4597;SDS011;62772;48.646;8.906;2023-07-20T13:07:34;4.73;;;1.70;;
4597;SDS011;62772;48.646;8.906;2023-07-20T13:12:36;3.27;;;1.93;;
4597;SDS011;62772;48.646;8.906;2023-07-20T13:17:38;4.00;;;1.90;;
4597;SDS011;62772;48.646;8.906;2023-07-20T13:22:39;5.60;;;2.13;;
4597;SDS011;62772;48.646;8.906;2023-07-20T13:27:40;3.00;;;2.00;;
4597;SDS011;62772;48.646;8.906;2023-07-20T13:32:41;3.07;;;2.00;;
4597;SDS011;62772;48.646;8.906;2023-07-20T13:37:42;3.40;;;1.77;;
4597;SDS011;62772;48.646;8.906;2023-07-20T13:42:42;3.83;;;1.97;;
4597;SDS011;62772;48.646;8.906;2023-07-20T13:47:42;6.83;;;1.50;;
4597;SDS011;62772;48.646;8.906;2023-07-20T13:52:43;2.90;;;1.87;;
4597;SDS011;62772;48.646;8.906;2023-07-20T13:57:43;3.58;;;2.00;;
4597;SDS011;62772;48.646;8.906;2023-07-20T14:02:44;3.00;;;1.80;;
4597;SDS011;62772;48.646;8.906;2023-07-20T14:07:44;4.10;;;1.58;;
4597;SDS011;62772;48.646;8.906;2023-07-20T14:12:45;3.70;;;1.90;;
4597;SDS011;62772;48.646;8.906;2023-07-20T14:17:46;3.00;;;1.60;;
4597;SDS011;62772;48.646;8.906;2023-07-20T14:22:46;3.78;;;1.85;;
4597;SDS011;62772;48.646;8.906;2023-07-20T14:27:48;2.60;;;1.80;;
4597;SDS011;62772;48.646;8.906;2023-07-20T14:32:49;2.88;;;1.52;;
4597;SDS011;62772;48.646;8.906;2023-07-20T14:37:49;4.80;;;1.90;;
4597;SDS011;62772;48.646;8.906;2023-07-20T14:42:50;2.58;;;1.42;;
4597;SDS011;62772;48.646;8.906;2023-07-20T14:47:52;2.90;;;1.90;;
4597;SDS011;62772;48.646;8.906;2023-07-20T14:52:53;3.70;;;1.80;;
4597;SDS011;62772;48.646;8.906;2023-07-20T14:57:54;3.45;;;1.95;;
4597;SDS011;62772;48.646;8.906;2023-07-20T15:02:55;2.97;;;1.92;;
4597;SDS011;62772;48.646;8.906;2023-07-20T15:07:56;3.13;;;1.90;;
4597;SDS011;62772;48.646;8.906;2023-07-20T15:12:56;4.65;;;2.13;;
4597;SDS011;62772;48.646;8.906;2023-07-20T15:17:57;3.63;;;1.90;;
4597;SDS011;62772;48.646;8.906;2023-07-20T15:22:57;3.30;;;2.00;;
4597;SDS011;62772;48.646;8.906;2023-07-20T15:27:57;4.22;;;1.98;;
4597;SDS011;62772;48.646;8.906;2023-07-20T15:32:58;2.50;;;1.80;;
4597;SDS011;62772;48.646;8.906;2023-07-20T15:37:58;2.80;;;1.73;;
4597;SDS011;62772;48.646;8.906;2023-07-20T15:42:59;3.13;;;1.87;;
4597;SDS011;62772;48.646;8.906;2023-07-20T15:48:00;2.80;;;1.73;;
4597;SDS011;62772;48.646;8.906;2023-07-20T15:53:00;2.70;;;1.57;;
4597;SDS011;62772;48.646;8.906;2023-07-20T15:58:01;3.07;;;1.90;;
4597;SDS011;62772;48.646;8.906;2023-07-20T16:03:02;3.00;;;2.00;;
4597;SDS011;62772;48.646;8.906;2023-07-20T16:08:03;2.60;;;1.70;;
4597;SDS011;62772;48.646;8.906;2023-07-20T16:13:04;4.60;;;1.80;;
4597;SDS011;62772;48.646;8.906;2023-07-20T16:18:05;4.07;;;1.53;;
4597;SDS011;62772;48.646;8.906;2023-07-20T16:23:06;3.03;;;1.73;;
4597;SDS011;62772;48.646;8.906;2023-07-20T16:28:07;3.30;;;1.73;;
4597;SDS011;62772;48.646;8.906;2023-07-20T16:33:09;2.55;;;1.70;;
4597;SDS011;62772;48.646;8.906;2023-07-20T16:38:10;3.00;;;1.63;;
4597;SDS011;62772;48.646;8.906;2023-07-20T16:43:11;3.80;;;1.60;;
4597;SDS011;62772;48.646;8.906;2023-07-20T16:48:11;2.63;;;1.83;;
4597;SDS011;62772;48.646;8.906;2023-07-20T16:53:12;2.13;;;1.37;;
4597;SDS011;62772;48.646;8.906;2023-07-20T16:58:12;3.67;;;1.80;;
4597;SDS011;62772;48.646;8.906;2023-07-20T17:03:13;2.37;;;1.43;;
4597;SDS011;62772;48.646;8.906;2023-07-20T17:08:16;2.67;;;1.53;;
4597;SDS011;62772;48.646;8.906;2023-07-20T17:13:17;7.03;;;1.63;;
4597;SDS011;62772;48.646;8.906;2023-07-20T17:18:18;4.00;;;1.97;;
4597;SDS011;62772;48.646;8.906;2023-07-20T17:23:18;5.03;;;1.73;;
4597;SDS011;62772;48.646;8.906;2023-07-20T17:28:19;9.30;;;1.93;;
4597;SDS011;62772;48.646;8.906;2023-07-20T17:33:19;3.28;;;1.65;;
4597;SDS011;62772;48.646;8.906;2023-07-20T17:38:20;2.53;;;1.70;;
4597;SDS011;62772;48.646;8.906;2023-07-20T17:43:22;3.97;;;1.67;;
4597;SDS011;62772;48.646;8.906;2023-07-20T17:48:22;3.20;;;1.63;;
4597;SDS011;62772;48.646;8.906;2023-07-20T17:53:23;6.40;;;1.60;;
4597;SDS011;62772;48.646;8.906;2023-07-20T17:58:23;4.20;;;2.17;;
4597;SDS011;62772;48.646;8.906;2023-07-20T18:03:24;2.87;;;1.70;;
4597;SDS011;62772;48.646;8.906;2023-07-20T18:08:24;3.00;;;1.80;;
4597;SDS011;62772;48.646;8.906;2023-07-20T18:13:26;3.10;;;1.60;;
4597;SDS011;62772;48.646;8.906;2023-07-20T18:18:26;4.33;;;1.83;;
4597;SDS011;62772;48.646;8.906;2023-07-20T18:23:27;4.30;;;1.77;;
4597;SDS011;62772;48.646;8.906;2023-07-20T18:28:28;6.43;;;1.50;;
4597;SDS011;62772;48.646;8.906;2023-07-20T18:33:28;3.60;;;1.80;;
4597;SDS011;62772;48.646;8.906;2023-07-20T18:38:29;3.00;;;1.63;;
4597;SDS011;62772;48.646;8.906;2023-07-20T18:43:29;7.23;;;2.90;;
4597;SDS011;62772;48.646;8.906;2023-07-20T18:48:30;7.33;;;3.40;;
4597;SDS011;62772;48.646;8.906;2023-07-20T18:53:30;6.27;;;2.83;;
4597;SDS011;62772;48.646;8.906;2023-07-20T18:58:32;6.53;;;2.63;;
4597;SDS011;62772;48.646;8.906;2023-07-20T19:03:33;4.67;;;2.40;;
4597;SDS011;62772;48.646;8.906;2023-07-20T19:08:34;4.93;;;2.70;;
4597;SDS011;62772;48.646;8.906;2023-07-20T19:13:35;4.97;;;2.00;;
4597;SDS011;62772;48.646;8.906;2023-07-20T19:18:36;5.90;;;2.30;;
4597;SDS011;62772;48.646;8.906;2023-07-20T19:23:40;3.10;;;1.53;;
4597;SDS011;62772;48.646;8.906;2023-07-20T19:28:41;2.77;;;1.60;;
4597;SDS011;62772;48.646;8.906;2023-07-20T19:33:41;2.80;;;1.73;;
4597;SDS011;62772;48.646;8.906;2023-07-20T19:38:42;3.67;;;2.33;;
4597;SDS011;62772;48.646;8.906;2023-07-20T19:43:42;6.10;;;2.00;;
4597;SDS011;62772;48.646;8.906;2023-07-20T19:48:44;12.43;;;2.27;;
4597;SDS011;62772;48.646;8.906;2023-07-20T19:53:45;7.70;;;2.13;;
4597;SDS011;62772;48.646;8.906;2023-07-20T19:58:47;2.93;;;1.90;;
4597;SDS011;62772;48.646;8.906;2023-07-20T20:03:48;2.40;;;1.70;;
4597;SDS011;62772;48.646;8.906;2023-07-20T20:08:48;3.43;;;1.80;;
4597;SDS011;62772;48.646;8.906;2023-07-20T20:13:49;5.00;;;2.03;;
4597;SDS011;62772;48.646;8.906;2023-07-20T20:18:50;2.80;;;1.70;;
4597;SDS011;62772;48.646;8.906;2023-07-20T20:23:51;3.70;;;1.93;;
4597;SDS011;62772;48.646;8.906;2023-07-20T20:28:51;3.97;;;2.20;;
4597;SDS011;62772;48.646;8.906;2023-07-20T20:33:52;4.13;;;2.50;;
4597;SDS011;62772;48.646;8.906;2023-07-20T20:38:52;3.13;;;1.90;;
4597;SDS011;62772;48.646;8.906;2023-07-20T20:43:53;4.70;;;2.30;;
4597;SDS011;62772;48.646;8.906;2023-07-20T20:48:53;3.87;;;2.30;;
4597;SDS011;62772;48.646;8.906;2023-07-20T20:53:54;5.20;;;2.40;;
4597;SDS011;62772;48.646;8.906;2023-07-20T20:58:54;3.20;;;2.10;;
4597;SDS011;62772;48.646;8.906;2023-07-20T21:03:54;4.03;;;2.47;;
4597;SDS011;62772;48.646;8.906;2023-07-20T21:08:55;3.40;;;2.10;;
4597;SDS011;62772;48.646;8.906;2023-07-20T21:13:56;4.43;;;2.30;;
4597;SDS011;62772;48.646;8.906;2023-07-20T21:18:56;3.87;;;2.30;;
4597;SDS011;62772;48.646;8.906;2023-07-20T21:23:57;3.90;;;2.30;;
4597;SDS011;62772;48.646;8.906;2023-07-20T21:28:57;4.83;;;3.00;;
4597;SDS011;62772;48.646;8.906;2023-07-20T21:33:58;4.20;;;2.40;;
4597;SDS011;62772;48.646;8.906;2023-07-20T21:38:58;4.53;;;2.70;;
4597;SDS011;62772;48.646;8.906;2023-07-20T21:43:59;5.67;;;2.43;;
4597;SDS011;62772;48.646;8.906;2023-07-20T21:49:00;3.23;;;2.33;;
4597;SDS011;62772;48.646;8.906;2023-07-20T21:54:00;4.00;;;2.20;;
4597;SDS011;62772;48.646;8.906;2023-07-20T21:59:00;5.17;;;2.23;;
4597;SDS011;62772;48.646;8.906;2023-07-20T22:04:01;6.57;;;2.40;;
4597;SDS011;62772;48.646;8.906;2023-07-20T22:09:01;4.27;;;2.53;;
4597;SDS011;62772;48.646;8.906;2023-07-20T22:14:02;3.57;;;2.40;;
4597;SDS011;62772;48.646;8.906;2023-07-20T22:19:03;4.93;;;2.80;;
4597;SDS011;62772;48.646;8.906;2023-07-20T22:24:03;3.17;;;2.17;;
4597;SDS011;62772;48.646;8.906;2023-07-20T22:29:04;3.30;;;2.00;;
4597;SDS011;62772;48.646;8.906;2023-07-20T22:34:05;4.00;;;2.23;;
4597;SDS011;62772;48.646;8.906;2023-07-20T22:39:05;5.17;;;2.40;;
4597;SDS011;62772;48.646;8.906;2023-07-20T22:44:06;4.03;;;2.30;;
4597;SDS011;62772;48.646;8.906;2023-07-20T22:49:07;4.23;;;2.30;;
4597;SDS011;62772;48.646;8.906;2023-07-20T22:54:07;3.70;;;2.20;;
4597;SDS011;62772;48.646;8.906;2023-07-20T22:59:08;3.60;;;2.00;;
4597;SDS011;62772;48.646;8.906;2023-07-20T23:04:10;5.00;;;2.50;;
4597;SDS011;62772;48.646;8.906;2023-07-20T23:09:11;4.60;;;2.80;;
4597;SDS011;62772;48.646;8.906;2023-07-20T23:14:13;3.93;;;2.13;;
4597;SDS011;62772;48.646;8.906;2023-07-20T23:19:13;9.20;;;2.67;;
4597;SDS011;62772;48.646;8.906;2023-07-20T23:24:14;2.93;;;2.10;;
4597;SDS011;62772;48.646;8.906;2023-07-20T23:29:14;5.60;;;2.33;;
4597;SDS011;62772;48.646;8.906;2023-07-20T23:34:15;4.37;;;2.53;;
4597;SDS011;62772;48.646;8.906;2023-07-20T23:39:15;3.80;;;2.40;;
4597;SDS011;62772;48.646;8.906;2023-07-20T23:44:16;4.13;;;2.20;;
4597;SDS011;62772;48.646;8.906;2023-07-20T23:49:16;3.50;;;2.30;;
4597;SDS011;62772;48.646;8.906;2023-07-20T23:54:17;3.40;;;1.87;;
4597;SDS011;62772;48.646;8.906;2023-07-20T23:59:18;4.33;;;2.20;;
